createdAt,value
2024-01-11T00:00:31.038Z,15.75
2024-01-11T00:05:18.385Z,19.23
2024-01-11T00:10:06.430Z,19.35
2024-01-11T00:14:53.606Z,16.77
2024-01-11T00:19:43.442Z,17.83
2024-01-11T00:24:30.501Z,16.42
2024-01-11T00:29:17.772Z,21.13
2024-01-11T00:34:05.131Z,16.92
2024-01-11T00:38:55.068Z,15.20
2024-01-11T00:43:42.390Z,16.95
2024-01-11T00:48:29.764Z,17.60
2024-01-11T00:53:17.060Z,16.30
2024-01-11T00:58:06.929Z,19.75
2024-01-11T01:02:55.020Z,19.50
2024-01-11T01:07:42.173Z,20.92
2024-01-11T01:12:29.293Z,18.88
2024-01-11T01:17:19.312Z,19.90
2024-01-11T01:22:06.527Z,22.80
2024-01-11T01:26:53.837Z,23.55
2024-01-11T01:32:11.125Z,17.75
2024-01-11T01:37:00.965Z,19.40
2024-01-11T01:41:48.134Z,21.42
2024-01-11T01:46:35.867Z,20.00
2024-01-11T01:51:25.025Z,19.10
2024-01-11T01:56:14.797Z,18.38
2024-01-11T02:01:02.493Z,16.75
2024-01-11T02:05:50.151Z,20.45
2024-01-11T02:10:38.047Z,15.70
2024-01-11T02:15:27.892Z,22.17
2024-01-11T02:20:15.478Z,20.50
2024-01-11T02:25:05.969Z,24.17
2024-01-11T02:29:53.191Z,19.52
2024-01-11T02:34:41.077Z,19.00
2024-01-11T02:39:28.667Z,20.50
2024-01-11T02:44:18.711Z,20.90
2024-01-11T02:49:06.175Z,19.77
2024-01-11T02:53:53.519Z,17.20
2024-01-11T02:58:40.921Z,19.30
2024-01-11T03:03:33.578Z,19.05
2024-01-11T03:08:20.833Z,19.85
2024-01-11T03:13:08.668Z,20.23
2024-01-11T03:17:56.192Z,18.48
2024-01-11T03:22:51.838Z,18.02
2024-01-11T03:27:39.090Z,23.73
2024-01-11T03:32:26.720Z,20.23
2024-01-11T03:37:14.025Z,20.65
2024-01-11T03:42:04.399Z,21.13
2024-01-11T03:46:51.611Z,18.55
2024-01-11T03:51:39.208Z,20.17
2024-01-11T03:56:26.531Z,21.08
2024-01-11T04:01:16.679Z,21.80
2024-01-11T04:06:04.331Z,22.17
2024-01-11T04:10:51.858Z,23.27
2024-01-11T04:15:39.135Z,18.88
2024-01-11T04:20:28.950Z,18.63
2024-01-11T04:25:16.220Z,22.92
2024-01-11T04:30:03.937Z,22.27
2024-01-11T04:34:51.160Z,19.15
2024-01-11T04:39:40.844Z,22.95
2024-01-11T04:44:28.327Z,24.42
2024-01-11T04:49:17.971Z,24.67
2024-01-11T04:54:05.414Z,23.95
2024-01-11T04:58:55.435Z,23.63
2024-01-11T05:03:42.916Z,23.98
2024-01-11T05:08:31.335Z,26.13
2024-01-11T05:13:19.421Z,28.23
2024-01-11T05:18:09.654Z,26.33
2024-01-11T05:22:57.829Z,25.13
2024-01-11T05:27:45.150Z,29.40
2024-01-11T05:32:32.596Z,27.30
2024-01-11T05:37:22.570Z,22.38
2024-01-11T05:42:09.889Z,27.95
2024-01-11T05:46:57.362Z,31.90
2024-01-11T05:51:44.908Z,30.13
2024-01-11T05:56:37.172Z,32.83
2024-01-11T06:01:24.434Z,34.40
2024-01-11T06:06:11.949Z,30.30
2024-01-11T06:10:59.366Z,32.83
2024-01-11T06:15:49.368Z,33.00
2024-01-11T06:20:36.873Z,32.95
2024-01-11T06:25:24.199Z,30.40
2024-01-11T06:30:12.859Z,36.05
2024-01-11T06:35:03.173Z,31.95
2024-01-11T06:39:51.175Z,34.25
2024-01-11T06:44:44.928Z,32.90
2024-01-11T06:49:35.131Z,38.35
2024-01-11T06:54:25.251Z,35.67
2024-01-11T06:59:13.080Z,37.53
2024-01-11T07:04:00.676Z,38.90
2024-01-11T07:08:48.138Z,36.53
2024-01-11T07:13:38.195Z,33.28
2024-01-11T07:18:25.746Z,38.50
2024-01-11T07:23:15.974Z,35.03
2024-01-11T07:28:03.514Z,37.75
2024-01-11T07:32:53.768Z,40.85
2024-01-11T07:37:41.416Z,38.10
2024-01-11T07:42:28.841Z,44.08
2024-01-11T07:47:16.616Z,48.42
2024-01-11T07:52:07.194Z,40.35
2024-01-11T07:56:56.579Z,51.10
2024-01-11T08:01:43.976Z,43.85
2024-01-11T08:06:32.867Z,39.63
2024-01-11T08:11:22.886Z,43.60
2024-01-11T08:16:16.776Z,50.08
2024-01-11T08:21:05.673Z,40.58
2024-01-11T08:25:53.146Z,41.85
2024-01-11T08:30:43.253Z,44.00
2024-01-11T08:35:30.745Z,44.20
2024-01-11T08:40:18.481Z,45.08
2024-01-11T08:45:07.413Z,45.85
2024-01-11T08:49:57.500Z,46.72
2024-01-11T08:54:44.945Z,45.30
2024-01-11T08:59:32.345Z,48.20
2024-01-11T09:04:20.213Z,49.33
2024-01-11T09:09:12.411Z,47.25
2024-01-11T09:13:59.873Z,49.50
2024-01-11T09:18:48.777Z,48.45
2024-01-11T09:23:36.565Z,46.38
2024-01-11T09:28:26.446Z,41.60
2024-01-11T09:33:13.782Z,47.45
2024-01-11T09:38:01.218Z,49.13
2024-01-11T09:42:48.534Z,47.22
2024-01-11T09:47:51.350Z,46.75
2024-01-11T09:52:40.935Z,45.28
2024-01-11T09:57:31.028Z,46.92
2024-01-11T10:02:18.913Z,51.25
2024-01-11T10:07:10.544Z,45.55
2024-01-11T10:11:57.987Z,41.13
2024-01-11T10:16:45.300Z,33.78
2024-01-11T10:21:32.631Z,39.78
2024-01-11T10:26:22.519Z,36.83
2024-01-11T10:31:09.999Z,36.50
2024-01-11T10:35:57.556Z,34.72
2024-01-11T10:40:45.516Z,35.97
2024-01-11T10:45:35.579Z,36.17
2024-01-11T10:50:26.977Z,36.15
2024-01-11T10:55:16.062Z,30.35
2024-01-11T11:00:04.767Z,34.53
2024-01-11T11:04:56.880Z,26.75
2024-01-11T11:09:45.506Z,23.10
2024-01-11T11:14:36.177Z,28.65
2024-01-11T11:19:24.093Z,28.80
2024-01-11T11:24:20.045Z,28.17
2024-01-11T11:29:09.558Z,33.00
2024-01-11T11:34:01.815Z,35.55
2024-01-11T11:38:53.394Z,34.65
2024-01-11T11:43:49.391Z,30.73
2024-01-11T11:48:51.817Z,34.72
2024-01-11T11:53:40.870Z,32.20
2024-01-11T11:58:30.513Z,35.25
2024-01-11T12:03:21.234Z,32.53
2024-01-11T12:08:09.040Z,36.38
2024-01-11T12:12:56.759Z,31.65
2024-01-11T12:17:47.669Z,32.30
2024-01-11T12:22:40.346Z,32.75
2024-01-11T12:27:31.272Z,29.85
2024-01-11T12:32:18.813Z,27.70
2024-01-11T12:37:07.267Z,29.58
2024-01-11T12:42:00.745Z,30.20
2024-01-11T12:46:49.543Z,31.20
2024-01-11T12:51:37.851Z,32.25
2024-01-11T12:56:37.753Z,28.52
2024-01-11T13:01:31.565Z,29.02
2024-01-11T13:06:19.692Z,27.52
2024-01-11T13:11:07.408Z,31.13
2024-01-11T13:15:55.119Z,28.45
2024-01-11T13:20:45.132Z,26.15
2024-01-11T13:25:32.251Z,30.05
2024-01-11T13:30:21.359Z,27.08
2024-01-11T13:35:08.973Z,23.02
2024-01-11T13:39:58.680Z,27.30
2024-01-11T13:44:45.894Z,23.77
2024-01-11T13:49:33.153Z,25.00
2024-01-11T13:54:20.325Z,25.35
2024-01-11T13:59:12.828Z,24.75
2024-01-11T14:03:59.974Z,27.90
2024-01-11T14:08:47.285Z,29.70
2024-01-11T14:13:34.544Z,25.30
2024-01-11T14:18:25.062Z,28.23
2024-01-11T14:23:12.711Z,24.05
2024-01-11T14:28:00.066Z,25.95
2024-01-11T14:32:47.576Z,26.38
2024-01-11T14:37:39.172Z,27.35
2024-01-11T14:42:26.615Z,26.25
2024-01-11T14:47:14.028Z,27.38
2024-01-11T14:52:01.141Z,27.10
2024-01-11T14:56:51.080Z,26.75
2024-01-11T15:01:38.323Z,27.90
2024-01-11T15:06:25.771Z,30.33
2024-01-11T15:11:13.068Z,30.17
2024-01-11T15:16:03.545Z,31.75
2024-01-11T15:20:50.809Z,30.92
2024-01-11T15:25:37.996Z,31.10
2024-01-11T15:30:25.416Z,26.30
2024-01-11T15:35:15.534Z,32.30
2024-01-11T15:40:03.636Z,27.42
2024-01-11T15:44:51.799Z,29.00
2024-01-11T15:49:39.207Z,28.50
2024-01-11T15:54:28.921Z,30.02
2024-01-11T15:59:16.259Z,31.85
2024-01-11T16:04:05.529Z,29.00
2024-01-11T16:08:52.876Z,30.77
2024-01-11T16:13:42.811Z,35.30
2024-01-11T16:18:30.217Z,30.67
2024-01-11T16:23:19.668Z,36.05
2024-01-11T16:28:07.104Z,36.67
2024-01-11T16:32:56.842Z,33.67
2024-01-11T16:37:44.101Z,41.47
2024-01-11T16:42:31.476Z,34.10
2024-01-11T16:47:18.705Z,41.67
2024-01-11T16:52:08.799Z,43.60
2024-01-11T16:56:56.294Z,37.28
2024-01-11T17:01:43.713Z,43.67
2024-01-11T17:06:30.835Z,75.55
2024-01-11T17:11:20.623Z,50.38
2024-01-11T17:16:08.292Z,48.35
2024-01-11T17:20:55.582Z,50.85
2024-01-11T17:25:42.849Z,49.33
2024-01-11T17:30:32.865Z,39.83
2024-01-11T17:35:20.439Z,52.13
2024-01-11T17:40:11.632Z,55.60
2024-01-11T17:44:58.891Z,44.72
2024-01-11T17:49:49.159Z,48.95
2024-01-11T17:54:36.956Z,48.25
2024-01-11T17:59:24.203Z,52.53
2024-01-11T18:04:11.595Z,50.25
2024-01-11T18:09:02.037Z,46.60
2024-01-11T18:13:49.320Z,49.53
2024-01-11T18:18:37.053Z,50.95
2024-01-11T18:23:24.378Z,52.00
2024-01-11T18:28:14.261Z,52.30
2024-01-11T18:33:01.558Z,54.97
2024-01-11T18:37:49.959Z,62.80
2024-01-11T18:42:37.162Z,52.47
2024-01-11T18:47:26.994Z,53.22
2024-01-11T18:52:17.299Z,52.35
2024-01-11T18:57:06.593Z,54.65
2024-01-11T19:01:55.015Z,55.55
2024-01-11T19:06:44.928Z,65.80
2024-01-11T19:11:32.472Z,52.63
2024-01-11T19:16:19.833Z,61.45
2024-01-11T19:21:07.226Z,70.25
2024-01-11T19:25:58.378Z,62.50
2024-01-11T19:30:46.906Z,68.20
2024-01-11T19:35:34.181Z,66.35
2024-01-11T19:40:21.536Z,65.97
2024-01-11T19:45:15.371Z,59.95
2024-01-11T19:50:02.570Z,57.10
2024-01-11T19:54:49.782Z,62.13
2024-01-11T19:59:37.056Z,61.90
2024-01-11T20:04:26.834Z,60.78
2024-01-11T20:09:14.032Z,64.35
2024-01-11T20:14:03.549Z,70.25
2024-01-11T20:18:50.916Z,62.08
2024-01-11T20:23:41.938Z,67.10
2024-01-11T20:28:29.192Z,67.53
2024-01-11T20:33:16.667Z,76.15
2024-01-11T20:38:04.716Z,72.60
2024-01-11T20:42:56.838Z,68.25
2024-01-11T20:47:44.069Z,69.13
2024-01-11T20:52:32.295Z,60.88
2024-01-11T20:57:19.472Z,69.78
2024-01-11T21:02:09.248Z,58.97
2024-01-11T21:06:56.649Z,68.90
2024-01-11T21:11:44.003Z,61.65
2024-01-11T21:16:31.505Z,67.40
2024-01-11T21:21:21.307Z,60.55
2024-01-11T21:26:08.550Z,64.88
2024-01-11T21:30:55.816Z,59.30
2024-01-11T21:35:43.229Z,61.55
2024-01-11T21:40:33.203Z,57.50
2024-01-11T21:45:20.312Z,65.63
2024-01-11T21:50:08.505Z,51.28
2024-01-11T21:54:55.716Z,50.67
2024-01-11T21:59:45.579Z,63.15
2024-01-11T22:04:32.783Z,60.53
2024-01-11T22:09:19.939Z,55.22
2024-01-11T22:14:07.179Z,43.28
2024-01-11T22:18:57.060Z,46.42
2024-01-11T22:23:44.694Z,36.55
2024-01-11T22:28:31.919Z,43.85
2024-01-11T22:33:19.258Z,46.95
2024-01-11T22:38:09.079Z,39.03
2024-01-11T22:42:56.353Z,33.00
2024-01-11T22:47:43.686Z,38.35
2024-01-11T22:52:30.877Z,29.40
2024-01-11T22:57:20.763Z,25.65
2024-01-11T23:02:08.144Z,25.40
2024-01-11T23:06:55.278Z,38.88
2024-01-11T23:11:43.612Z,27.55
2024-01-11T23:16:33.554Z,28.13
2024-01-11T23:21:20.764Z,22.13
2024-01-11T23:26:07.897Z,24.02
2024-01-11T23:30:57.728Z,26.73
2024-01-11T23:35:47.816Z,25.42
2024-01-11T23:40:35.123Z,13.23
2024-01-11T23:45:22.268Z,17.30
2024-01-11T23:50:10.346Z,15.23
2024-01-11T23:55:00.621Z,15.35
2024-01-11T23:59:48.035Z,20.27
